createdAt,value
2023-04-15T00:00:02.361Z,10.67
2023-04-15T00:03:16.530Z,10.92
2023-04-15T00:06:22.380Z,10.88
2023-04-15T00:09:26.387Z,11.71
2023-04-15T00:12:30.911Z,11.27
2023-04-15T00:15:35.517Z,11.33
2023-04-15T00:18:40.094Z,11.37
2023-04-15T00:21:44.625Z,11.76
2023-04-15T00:24:48.657Z,12.21
2023-04-15T00:27:53.024Z,12.37
2023-04-15T00:30:57.393Z,12.58
2023-04-15T00:34:01.890Z,12.37
2023-04-15T00:37:06.621Z,12.52
2023-04-15T00:40:14.745Z,12.79
2023-04-15T00:43:18.796Z,12.43
2023-04-15T00:46:24.496Z,13.29
2023-04-15T00:49:30.510Z,13.60
2023-04-15T00:52:35.744Z,12.35
2023-04-15T00:55:40.592Z,13.07
2023-04-15T00:58:44.872Z,14.22
2023-04-15T01:01:49.188Z,14.88
2023-04-15T01:04:53.354Z,15.49
2023-04-15T01:07:57.810Z,15.47
2023-04-15T01:11:04.358Z,15.86
2023-04-15T01:14:10.269Z,16.13
2023-04-15T01:17:15.349Z,16.08
2023-04-15T01:20:19.959Z,14.26
2023-04-15T01:23:24.792Z,14.59
2023-04-15T01:26:29.111Z,15.44
2023-04-15T01:29:37.735Z,15.52
2023-04-15T01:32:42.667Z,15.00
2023-04-15T01:36:07.954Z,15.48
2023-04-15T01:39:12.473Z,16.46
2023-04-15T01:42:16.541Z,16.29
2023-04-15T01:45:20.926Z,17.08
2023-04-15T01:48:25.593Z,16.97
2023-04-15T01:51:29.880Z,17.32
2023-04-15T01:54:34.593Z,17.14
2023-04-15T01:57:38.967Z,15.40
2023-04-15T02:00:43.744Z,16.43
2023-04-15T02:03:48.465Z,16.54
2023-04-15T02:06:53.272Z,15.63
2023-04-15T02:09:59.329Z,15.86
2023-04-15T02:13:04.000Z,15.45
2023-04-15T02:16:18.230Z,15.00
2023-04-15T02:19:22.960Z,14.68
2023-04-15T02:22:27.008Z,14.71
2023-04-15T02:25:31.333Z,15.18
2023-04-15T02:28:35.658Z,15.33
2023-04-15T02:31:41.381Z,15.51
2023-04-15T02:34:45.149Z,15.23
2023-04-15T02:37:49.647Z,15.24
2023-04-15T02:40:55.270Z,15.13
2023-04-15T02:44:00.160Z,15.34
2023-04-15T02:47:07.921Z,15.49
2023-04-15T02:50:14.040Z,15.31
2023-04-15T02:53:20.555Z,15.00
2023-04-15T02:56:24.941Z,14.76
2023-04-15T02:59:29.095Z,14.28
2023-04-15T03:02:38.271Z,13.72
2023-04-15T03:05:43.123Z,12.65
2023-04-15T03:08:48.324Z,12.92
2023-04-15T03:11:54.466Z,12.71
2023-04-15T03:14:59.458Z,13.12
2023-04-15T03:18:10.467Z,12.31
2023-04-15T03:21:14.650Z,12.76
2023-04-15T03:24:18.897Z,12.24
2023-04-15T03:27:23.375Z,12.84
2023-04-15T03:30:31.121Z,12.61
2023-04-15T03:33:35.250Z,12.63
2023-04-15T03:36:39.286Z,11.92
2023-04-15T03:39:43.691Z,12.76
2023-04-15T03:42:48.544Z,13.02
2023-04-15T03:45:53.211Z,13.00
2023-04-15T03:48:57.562Z,13.35
2023-04-15T03:52:02.190Z,13.60
2023-04-15T03:55:06.802Z,13.27
2023-04-15T03:58:13.718Z,13.36
2023-04-15T04:01:18.247Z,13.21
2023-04-15T04:04:22.973Z,13.23
2023-04-15T04:07:26.972Z,13.20
2023-04-15T04:10:30.870Z,13.20
2023-04-15T04:13:35.229Z,13.59
2023-04-15T04:16:39.813Z,13.30
2023-04-15T04:19:44.294Z,12.90
2023-04-15T04:22:48.877Z,13.00
2023-04-15T04:25:54.303Z,12.92
2023-04-15T04:28:58.953Z,12.48
2023-04-15T04:32:02.915Z,12.61
2023-04-15T04:35:08.098Z,12.87
2023-04-15T04:38:12.742Z,12.94
2023-04-15T04:41:17.341Z,12.54
2023-04-15T04:44:23.063Z,12.52
2023-04-15T04:47:27.756Z,13.06
2023-04-15T04:50:32.565Z,12.71
2023-04-15T04:53:38.546Z,12.15
2023-04-15T04:56:42.787Z,13.02
2023-04-15T04:59:47.452Z,12.82
2023-04-15T05:02:52.468Z,12.80
2023-04-15T05:05:57.307Z,12.30
2023-04-15T05:09:02.470Z,12.93
2023-04-15T05:12:08.603Z,13.18
2023-04-15T05:15:15.089Z,13.27
2023-04-15T05:18:22.972Z,12.89
2023-04-15T05:21:28.433Z,13.25
2023-04-15T05:24:33.181Z,13.18
2023-04-15T05:27:37.704Z,13.28
2023-04-15T05:30:41.929Z,12.96
2023-04-15T05:33:46.337Z,13.12
2023-04-15T05:36:50.759Z,13.05
2023-04-15T05:39:57.728Z,12.76
2023-04-15T05:43:02.460Z,12.79
2023-04-15T05:46:06.702Z,13.13
2023-04-15T05:49:10.990Z,13.03
2023-04-15T05:52:15.447Z,13.08
2023-04-15T05:55:19.965Z,12.73
2023-04-15T05:58:24.487Z,12.58
2023-04-15T06:01:32.413Z,12.70
2023-04-15T06:04:37.906Z,12.27
2023-04-15T06:07:46.095Z,12.68
2023-04-15T06:10:51.890Z,12.87
2023-04-15T06:13:56.314Z,12.83
2023-04-15T06:17:00.846Z,12.83
2023-04-15T06:20:05.602Z,13.15
2023-04-15T06:23:09.656Z,13.01
2023-04-15T06:26:14.057Z,12.68
2023-04-15T06:29:18.458Z,12.97
2023-04-15T06:32:22.824Z,13.13
2023-04-15T06:35:27.038Z,12.68
2023-04-15T06:38:30.951Z,13.11
2023-04-15T06:41:36.391Z,12.65
2023-04-15T06:44:40.892Z,12.79
2023-04-15T06:47:45.135Z,12.80
2023-04-15T06:50:50.733Z,12.84
2023-04-15T06:53:54.847Z,12.99
2023-04-15T06:57:02.112Z,13.05
2023-04-15T07:00:08.498Z,13.05
2023-04-15T07:03:14.681Z,12.72
2023-04-15T07:06:18.987Z,12.51
2023-04-15T07:09:24.681Z,12.38
2023-04-15T07:12:28.324Z,12.48
2023-04-15T07:15:33.506Z,12.39
2023-04-15T07:18:37.566Z,12.57
2023-04-15T07:21:42.258Z,12.74
2023-04-15T07:24:47.483Z,12.87
2023-04-15T07:27:55.469Z,12.77
2023-04-15T07:30:59.525Z,12.45
2023-04-15T07:34:04.262Z,12.68
2023-04-15T07:37:08.715Z,12.58
2023-04-15T07:40:15.578Z,12.85
2023-04-15T07:43:21.505Z,12.80
2023-04-15T07:46:28.104Z,12.60
2023-04-15T07:49:32.710Z,12.32
2023-04-15T07:52:40.121Z,12.18
2023-04-15T07:55:44.612Z,12.37
2023-04-15T07:58:49.165Z,12.54
2023-04-15T08:01:53.621Z,12.49
2023-04-15T08:04:58.649Z,12.33
2023-04-15T08:08:03.159Z,12.48
2023-04-15T08:11:07.498Z,12.27
2023-04-15T08:14:11.721Z,12.25
2023-04-15T08:17:16.583Z,12.26
2023-04-15T08:20:21.529Z,12.24
2023-04-15T08:23:26.043Z,12.04
2023-04-15T08:26:30.308Z,12.21
2023-04-15T08:29:35.013Z,12.09
2023-04-15T08:32:38.851Z,12.14
2023-04-15T08:35:43.360Z,12.04
2023-04-15T08:38:47.767Z,11.93
2023-04-15T08:42:04.355Z,11.75
2023-04-15T08:45:14.202Z,11.63
2023-04-15T08:48:18.672Z,11.79
2023-04-15T08:51:24.568Z,11.64
2023-04-15T08:54:30.149Z,11.53
2023-04-15T08:57:36.216Z,11.32
2023-04-15T09:00:40.513Z,11.37
2023-04-15T09:03:45.770Z,11.16
2023-04-15T09:06:49.925Z,10.97
2023-04-15T09:09:55.037Z,10.88
2023-04-15T09:13:27.586Z,10.70
2023-04-15T09:16:31.798Z,10.53
2023-04-15T09:19:36.715Z,10.49
2023-04-15T09:22:42.581Z,10.41
2023-04-15T09:25:52.918Z,10.20
2023-04-15T09:29:16.014Z,10.21
2023-04-15T09:32:22.095Z,10.06
2023-04-15T09:35:30.917Z,10.19
2023-04-15T09:38:35.560Z,9.99
2023-04-15T09:41:40.319Z,10.06
2023-04-15T09:44:45.097Z,9.84
2023-04-15T09:47:49.878Z,9.94
2023-04-15T09:50:58.857Z,9.89
2023-04-15T09:54:03.325Z,9.77
2023-04-15T09:57:13.128Z,9.56
2023-04-15T10:00:18.564Z,9.65
2023-04-15T10:03:36.263Z,9.39
2023-04-15T10:06:41.576Z,9.46
2023-04-15T10:09:47.926Z,9.17
2023-04-15T10:12:53.840Z,9.29
2023-04-15T10:16:03.352Z,9.18
2023-04-15T10:19:09.948Z,9.05
2023-04-15T10:22:16.089Z,9.01
2023-04-15T10:25:20.750Z,8.95
2023-04-15T10:28:25.200Z,8.90
2023-04-15T10:31:30.828Z,8.91
2023-04-15T10:34:35.656Z,8.59
2023-04-15T10:37:41.791Z,8.76
2023-04-15T10:40:47.644Z,8.64
2023-04-15T10:43:57.698Z,8.64
2023-04-15T10:47:02.507Z,8.58
2023-04-15T10:50:07.937Z,8.51
2023-04-15T10:53:12.750Z,8.31
2023-04-15T10:56:19.042Z,8.12
2023-04-15T10:59:23.452Z,7.87
2023-04-15T11:02:46.703Z,7.77
2023-04-15T11:05:53.127Z,7.77
2023-04-15T11:09:03.491Z,7.58
2023-04-15T11:12:11.188Z,7.34
2023-04-15T11:15:41.891Z,7.28
2023-04-15T11:18:56.738Z,7.03
2023-04-15T11:22:11.721Z,7.27
2023-04-15T11:25:36.619Z,7.08
2023-04-15T11:28:43.699Z,7.06
2023-04-15T11:31:50.412Z,6.63
2023-04-15T11:34:54.782Z,6.68
2023-04-15T11:37:59.510Z,6.55
2023-04-15T11:41:04.948Z,6.83
2023-04-15T11:44:19.252Z,6.55
2023-04-15T11:47:25.350Z,6.55
2023-04-15T11:50:29.342Z,6.51
2023-04-15T11:53:40.503Z,6.46
2023-04-15T11:56:52.755Z,5.94
2023-04-15T11:59:57.161Z,6.01
2023-04-15T12:03:22.809Z,5.72
2023-04-15T12:06:33.406Z,5.56
2023-04-15T12:09:41.819Z,5.56
2023-04-15T12:12:51.095Z,5.21
2023-04-15T12:15:57.407Z,5.45
2023-04-15T12:19:06.087Z,5.34
2023-04-15T12:22:14.853Z,5.59
2023-04-15T12:25:19.499Z,5.66
2023-04-15T12:28:23.991Z,5.61
2023-04-15T12:31:27.978Z,5.19
2023-04-15T12:34:34.524Z,4.89
2023-04-15T12:37:39.154Z,5.75
2023-04-15T12:40:43.890Z,5.67
2023-04-15T12:43:48.027Z,5.31
2023-04-15T12:46:56.501Z,5.27
2023-04-15T12:50:01.069Z,5.09
2023-04-15T12:53:07.288Z,4.92
2023-04-15T12:56:12.456Z,4.99
2023-04-15T12:59:19.493Z,5.09
2023-04-15T13:02:26.391Z,4.73
2023-04-15T13:05:30.820Z,4.84
2023-04-15T13:08:38.560Z,4.83
2023-04-15T13:11:45.485Z,4.84
2023-04-15T13:14:50.225Z,4.97
2023-04-15T13:17:54.863Z,4.44
2023-04-15T13:20:59.119Z,4.35
2023-04-15T13:24:04.061Z,4.47
2023-04-15T13:27:09.246Z,4.56
2023-04-15T13:30:14.131Z,4.27
2023-04-15T13:33:19.310Z,4.40
2023-04-15T13:36:23.583Z,4.59
2023-04-15T13:39:28.155Z,4.10
2023-04-15T13:42:32.481Z,4.12
2023-04-15T13:45:37.116Z,4.32
2023-04-15T13:48:41.912Z,4.33
2023-04-15T13:51:46.212Z,4.12
2023-04-15T13:55:18.412Z,3.89
2023-04-15T13:58:14.996Z,3.73
2023-04-15T14:01:19.752Z,3.96
2023-04-15T14:04:24.032Z,4.34
2023-04-15T14:07:30.293Z,4.77
2023-04-15T14:10:34.866Z,4.62
2023-04-15T14:13:39.429Z,4.58
2023-04-15T14:16:44.323Z,4.46
2023-04-15T14:19:49.114Z,4.17
2023-04-15T14:22:53.929Z,3.98
2023-04-15T14:25:58.056Z,4.16
2023-04-15T14:29:02.632Z,4.29
2023-04-15T14:32:12.386Z,4.15
2023-04-15T14:35:17.394Z,4.00
2023-04-15T14:38:26.881Z,4.50
2023-04-15T14:41:32.264Z,4.54
2023-04-15T14:44:40.159Z,4.39
2023-04-15T14:47:45.243Z,4.48
2023-04-15T14:50:50.068Z,4.47
2023-04-15T14:53:54.488Z,4.52
2023-04-15T14:56:59.128Z,4.55
2023-04-15T15:00:05.026Z,4.74
2023-04-15T15:03:13.760Z,4.52
2023-04-15T15:06:18.567Z,5.05
2023-04-15T15:09:24.655Z,5.05
2023-04-15T15:12:29.389Z,5.00
2023-04-15T15:15:35.861Z,5.19
2023-04-15T15:18:40.406Z,5.06
2023-04-15T15:21:44.597Z,5.10
2023-04-15T15:24:48.986Z,4.81
2023-04-15T15:27:54.241Z,4.55
2023-04-15T15:30:58.728Z,4.79
2023-04-15T15:34:03.767Z,5.00
2023-04-15T15:37:08.303Z,4.84
2023-04-15T15:40:13.134Z,4.70
2023-04-15T15:43:17.717Z,4.76
2023-04-15T15:46:24.986Z,4.93
2023-04-15T15:49:29.872Z,4.52
2023-04-15T15:52:34.813Z,4.71
2023-04-15T15:55:39.707Z,4.70
2023-04-15T15:58:47.145Z,4.57
2023-04-15T16:01:51.550Z,4.57
2023-04-15T16:04:56.060Z,4.30
2023-04-15T16:08:00.857Z,4.38
2023-04-15T16:11:05.703Z,4.50
2023-04-15T16:14:11.384Z,4.48
2023-04-15T16:17:15.830Z,4.61
2023-04-15T16:20:20.252Z,4.82
2023-04-15T16:23:24.937Z,4.46
2023-04-15T16:26:29.816Z,4.22
2023-04-15T16:29:35.233Z,4.23
2023-04-15T16:32:39.682Z,4.62
2023-04-15T16:35:44.494Z,4.52
2023-04-15T16:38:49.803Z,4.29
2023-04-15T16:41:55.083Z,4.27
2023-04-15T16:44:59.527Z,4.47
2023-04-15T16:51:19.047Z,4.22
2023-04-15T16:54:23.681Z,3.99
2023-04-15T16:57:50.841Z,4.36
2023-04-15T17:00:52.660Z,4.11
2023-04-15T17:03:57.580Z,3.70
2023-04-15T17:07:02.372Z,3.69
2023-04-15T17:10:07.604Z,3.84
2023-04-15T17:13:12.117Z,3.93
2023-04-15T17:16:17.090Z,4.24
2023-04-15T17:19:23.870Z,4.10
2023-04-15T17:22:41.136Z,3.84
2023-04-15T17:25:46.781Z,3.78
2023-04-15T17:28:53.119Z,3.83
2023-04-15T17:32:05.843Z,3.88
2023-04-15T17:35:30.226Z,4.00
2023-04-15T17:38:57.595Z,4.03
2023-04-15T17:42:23.139Z,4.03
2023-04-15T17:45:48.310Z,4.14
2023-04-15T17:49:12.360Z,4.25
2023-04-15T17:52:36.876Z,4.01
2023-04-15T17:56:01.664Z,4.25
2023-04-15T17:59:26.354Z,3.90
2023-04-15T18:02:50.791Z,3.64
2023-04-15T18:06:15.551Z,3.76
2023-04-15T18:09:39.840Z,4.03
2023-04-15T18:13:04.247Z,3.67
2023-04-15T18:16:28.512Z,4.03
2023-04-15T18:19:53.324Z,4.05
2023-04-15T18:22:58.799Z,3.74
2023-04-15T18:26:03.348Z,3.68
2023-04-15T18:29:08.079Z,3.81
2023-04-15T18:32:12.788Z,3.77
2023-04-15T18:35:17.959Z,3.78
2023-04-15T18:38:23.297Z,3.66
2023-04-15T18:41:28.014Z,3.58
2023-04-15T18:44:32.344Z,3.62
2023-04-15T18:47:36.905Z,3.78
2023-04-15T18:50:41.706Z,3.71
2023-04-15T18:53:46.601Z,3.53
2023-04-15T18:56:52.344Z,3.60
2023-04-15T18:59:56.146Z,3.60
2023-04-15T19:03:00.716Z,3.58
2023-04-15T19:06:05.529Z,3.72
2023-04-15T19:09:10.078Z,3.72
2023-04-15T19:12:15.023Z,3.75
2023-04-15T19:15:19.666Z,3.59
2023-04-15T19:18:24.470Z,3.60
2023-04-15T19:21:29.541Z,3.52
2023-04-15T19:24:33.970Z,3.39
2023-04-15T19:27:39.103Z,3.40
2023-04-15T19:30:44.426Z,3.27
2023-04-15T19:33:48.888Z,3.16
2023-04-15T19:36:53.487Z,3.19
2023-04-15T19:39:58.098Z,3.14
2023-04-15T19:43:02.790Z,2.95
2023-04-15T19:46:08.655Z,3.11
2023-04-15T19:49:12.511Z,2.61
2023-04-15T19:52:16.610Z,2.91
2023-04-15T19:55:21.799Z,3.03
2023-04-15T19:58:26.998Z,3.05
2023-04-15T20:01:31.731Z,2.71
2023-04-15T20:04:36.336Z,2.66
2023-04-15T20:07:43.266Z,2.78
2023-04-15T20:10:47.904Z,2.75
2023-04-15T20:13:52.366Z,2.98
2023-04-15T20:16:56.964Z,2.95
2023-04-15T20:20:01.389Z,3.14
2023-04-15T20:23:06.851Z,2.96
2023-04-15T20:26:11.534Z,3.02
2023-04-15T20:29:16.026Z,3.21
2023-04-15T20:32:20.732Z,3.00
2023-04-15T20:35:28.900Z,2.68
2023-04-15T20:38:33.449Z,2.88
2023-04-15T20:41:38.028Z,2.77
2023-04-15T20:44:42.583Z,2.88
2023-04-15T20:47:46.988Z,2.75
2023-04-15T20:50:52.448Z,3.03
2023-04-15T20:53:57.101Z,2.86
2023-04-15T20:57:02.584Z,3.06
2023-04-15T21:00:07.917Z,3.02
2023-04-15T21:03:15.931Z,3.37
2023-04-15T21:06:20.527Z,3.30
2023-04-15T21:09:26.457Z,3.14
2023-04-15T21:12:31.129Z,3.18
2023-04-15T21:15:35.891Z,2.98
2023-04-15T21:18:43.233Z,3.19
2023-04-15T21:21:47.406Z,3.27
2023-04-15T21:24:51.953Z,3.06
2023-04-15T21:27:56.631Z,2.88
2023-04-15T21:31:01.247Z,2.92
2023-04-15T21:34:05.480Z,3.14
2023-04-15T21:37:09.557Z,3.58
2023-04-15T21:40:15.672Z,3.60
2023-04-15T21:43:19.992Z,3.86
2023-04-15T21:46:25.361Z,3.94
2023-04-15T21:49:37.144Z,3.86
2023-04-15T21:52:42.252Z,3.59
2023-04-15T21:55:47.039Z,3.86
2023-04-15T21:58:52.187Z,3.33
2023-04-15T22:01:57.175Z,3.86
2023-04-15T22:05:04.075Z,3.69
2023-04-15T22:08:08.730Z,3.65
2023-04-15T22:11:28.759Z,3.62
2023-04-15T22:14:32.844Z,3.53
2023-04-15T22:17:37.156Z,3.39
2023-04-15T22:20:42.393Z,3.69
2023-04-15T22:23:50.991Z,3.90
2023-04-15T22:26:55.084Z,3.98
2023-04-15T22:29:59.728Z,4.46
2023-04-15T22:33:04.631Z,4.50
2023-04-15T22:36:08.828Z,4.48
2023-04-15T22:39:12.744Z,4.72
2023-04-15T22:42:16.733Z,5.08
2023-04-15T22:45:21.324Z,5.08
2023-04-15T22:48:26.130Z,4.91
2023-04-15T22:51:30.817Z,5.15
2023-04-15T22:54:34.946Z,5.32
2023-04-15T22:57:39.159Z,5.45
2023-04-15T23:00:43.714Z,5.69
2023-04-15T23:03:56.142Z,5.73
2023-04-15T23:07:08.042Z,5.52
2023-04-15T23:10:12.767Z,5.62
2023-04-15T23:13:17.804Z,5.54
2023-04-15T23:16:21.842Z,5.92
2023-04-15T23:19:26.169Z,6.45
2023-04-15T23:22:30.706Z,6.21
2023-04-15T23:25:36.480Z,6.47
2023-04-15T23:28:41.038Z,6.61
2023-04-15T23:31:45.482Z,6.93
2023-04-15T23:34:50.774Z,7.13
2023-04-15T23:37:55.618Z,7.60
2023-04-15T23:41:01.895Z,7.79
2023-04-15T23:44:10.388Z,8.04
2023-04-15T23:47:16.902Z,8.42
2023-04-15T23:50:22.979Z,8.35
2023-04-15T23:53:27.764Z,8.55
2023-04-15T23:56:32.672Z,8.68
2023-04-15T23:59:36.884Z,8.63
